Time;durP1;ratioP1;P1;durP2;ratioP2;P2;SDS_P1;SDS_P2;PMS_P1;PMS_P2;Temp;Humidity;BMP_temperature;BMP_pressure;BME280_temperature;BME280_humidity;BME280_pressure;Samples;Min_cycle;Max_cycle;Signal;HPM_P1;HPM_P2
2022/05/25 00:01:22;;;;;;;8.43;2.85;;;;;;;18.15;75.08;100774.66;4994767;28;20026;-82
2022/05/25 00:03:47;;;;;;;6.35;3.25;;;;;;;18.11;75.24;100768.72;4960942;28;20030;-82
2022/05/25 00:06:13;;;;;;;5.57;2.72;;;;;;;18.07;75.31;100766.50;4978034;28;20033;-81
2022/05/25 00:08:40;;;;;;;6.32;3.35;;;;;;;18.06;75.18;100779.28;4996282;28;20547;-81
2022/05/25 00:11:07;;;;;;;11.23;3.58;;;;;;;18.05;75.22;100769.38;4978742;28;20053;-82
2022/05/25 00:13:33;;;;;;;9.20;2.75;;;;;;;18.03;74.85;100776.88;4979850;28;20027;-82
2022/05/25 00:15:58;;;;;;;3.50;2.65;;;;;;;17.99;74.87;100780.97;4999170;28;20026;-81
2022/05/25 00:18:24;;;;;;;4.03;2.95;;;;;;;17.96;74.71;100778.56;5005531;28;20030;-81
2022/05/25 00:20:49;;;;;;;8.05;2.80;;;;;;;17.95;74.63;100779.59;4987956;28;20073;-81
2022/05/25 00:23:15;;;;;;;5.35;2.70;;;;;;;17.91;74.55;100775.50;5004475;28;20430;-81
2022/05/25 00:25:40;;;;;;;7.03;3.15;;;;;;;17.90;74.63;100779.25;5000127;28;20027;-82
2022/05/25 00:28:08;;;;;;;7.18;3.25;;;;;;;17.87;74.83;100771.41;4979246;28;20109;-81
2022/05/25 00:30:36;;;;;;;4.95;2.40;;;;;;;17.88;74.58;100784.88;4996738;28;20026;-82
2022/05/25 00:33:02;;;;;;;3.08;2.30;;;;;;;17.82;74.78;100779.25;4997588;28;20026;-82
2022/05/25 00:35:31;;;;;;;7.20;2.30;;;;;;;17.83;75.06;100770.03;4979935;28;20116;-82
2022/05/25 00:37:57;;;;;;;5.80;2.70;;;;;;;17.76;74.87;100763.59;4997329;28;20097;-81
2022/05/25 00:40:46;;;;;;;5.70;2.85;;;;;;;17.75;75.05;100772.75;4978839;28;20113;-82
2022/05/25 00:43:13;;;;;;;10.52;3.17;;;;;;;17.76;75.11;100775.34;4959163;28;20039;-82
2022/05/25 00:45:45;;;;;;;6.05;2.78;;;;;;;17.70;74.88;100769.69;4992202;28;20104;-81
2022/05/25 00:48:23;;;;;;;4.13;2.97;;;;;;;17.67;75.09;100772.75;4978873;28;20395;-81
2022/05/25 00:53:33;;;;;;;10.73;3.08;;;;;;;17.61;75.09;100776.16;4996110;28;20029;-82
2022/05/25 00:55:59;;;;;;;8.18;3.05;;;;;;;17.62;75.15;100773.25;4979493;28;20076;-82
2022/05/25 00:58:25;;;;;;;9.20;3.42;;;;;;;17.59;75.14;100778.16;4979982;28;20033;-83
2022/05/25 01:00:50;;;;;;;14.90;3.50;;;;;;;17.50;75.02;100773.69;4996534;28;20412;-81
2022/05/25 01:03:16;;;;;;;13.77;4.55;;;;;;;17.49;75.03;100769.28;4995975;28;20106;-82
2022/05/25 01:05:52;;;;;;;9.02;3.25;;;;;;;17.51;74.99;100780.84;4978491;28;20034;-82
2022/05/25 01:08:42;;;;;;;12.70;3.70;;;;;;;17.40;74.98;100780.13;4978632;28;20022;-82
2022/05/25 01:11:20;;;;;;;6.38;2.85;;;;;;;17.28;75.59;100781.44;4996618;28;20022;-82
2022/05/25 01:14:09;;;;;;;6.82;3.08;;;;;;;17.15;76.22;100781.06;4979188;28;20034;-81
2022/05/25 01:16:47;;;;;;;13.98;3.83;;;;;;;17.14;76.51;100776.63;4989428;28;20467;-81
2022/05/25 01:19:55;;;;;;;9.05;3.58;;;;;;;17.12;76.78;100775.09;4997540;28;20432;-82
2022/05/25 01:22:52;;;;;;;8.05;4.32;;;;;;;17.09;77.08;100776.28;4996385;28;20062;-81
2022/05/25 01:25:56;;;;;;;10.80;4.45;;;;;;;17.08;76.82;100776.44;4976071;28;20023;-81
2022/05/25 01:28:36;;;;;;;31.50;5.10;;;;;;;17.05;77.06;100771.31;4958850;28;20027;-82
2022/05/25 01:31:08;;;;;;;12.85;4.00;;;;;;;17.04;76.98;100765.03;4977660;28;20041;-81
2022/05/25 01:33:49;;;;;;;10.02;4.05;;;;;;;17.05;76.94;100774.88;4995455;28;20041;-81
2022/05/25 01:36:21;;;;;;;7.57;3.60;;;;;;;17.04;77.07;100786.75;4994938;28;20030;-81
2022/05/25 01:38:53;;;;;;;9.73;3.60;;;;;;;16.97;77.17;100774.84;4977456;28;20414;-82
2022/05/25 01:41:27;;;;;;;6.75;3.50;;;;;;;17.00;76.96;100782.66;4994615;28;20113;-82
2022/05/25 01:44:01;;;;;;;10.68;4.43;;;;;;;17.00;76.60;100777.22;4976904;28;20423;-81
2022/05/25 01:46:41;;;;;;;11.80;4.28;;;;;;;17.03;76.75;100782.34;4976351;28;20027;-82
2022/05/25 01:49:24;;;;;;;11.55;4.25;;;;;;;16.94;76.68;100777.88;4994215;28;20030;-81
2022/05/25 01:51:57;;;;;;;14.82;4.35;;;;;;;16.98;76.95;100795.56;4978429;28;20033;-81
2022/05/25 01:54:29;;;;;;;12.32;4.05;;;;;;;16.97;77.07;100779.44;4961012;28;20026;-80
2022/05/25 01:56:57;;;;;;;9.60;3.70;;;;;;;17.01;76.99;100784.38;4994007;28;20036;-81
2022/05/25 01:59:23;;;;;;;10.43;3.70;;;;;;;16.96;76.66;100786.75;4977369;28;20026;-81
2022/05/25 02:04:46;;;;;;;14.50;4.07;;;;;;;16.98;77.00;100784.69;4975895;28;20093;-82
2022/05/25 02:07:26;;;;;;;13.75;4.13;;;;;;;17.00;77.34;100782.66;4993737;28;20118;-81
2022/05/25 02:10:04;;;;;;;5.60;2.85;;;;;;;17.00;77.26;100789.97;4995262;28;20030;-81
2022/05/25 02:12:36;;;;;;;6.82;3.38;;;;;;;16.99;77.37;100800.00;4994576;28;20125;-81
2022/05/25 02:15:39;;;;;;;10.45;4.70;;;;;;;16.99;77.33;100796.44;4995072;28;20030;-81
2022/05/25 02:18:22;;;;;;;9.88;3.50;;;;;;;16.96;77.66;100803.03;4968566;28;20084;-81
2022/05/25 02:21:29;;;;;;;6.18;3.75;;;;;;;16.95;77.80;100805.91;4975158;28;20529;-82
2022/05/25 02:24:28;;;;;;;7.15;3.58;;;;;;;16.97;78.50;100804.72;4918378;28;20053;-81
2022/05/25 02:27:03;;;;;;;9.55;3.75;;;;;;;16.96;78.58;100807.63;4984362;28;20064;-81
2022/05/25 02:29:50;;;;;;;6.13;3.90;;;;;;;16.95;78.86;100811.34;4975529;28;20512;-81
2022/05/25 02:32:38;;;;;;;6.07;3.70;;;;;;;16.94;78.82;100815.91;4993959;28;20106;-82
2022/05/25 02:35:07;;;;;;;7.88;3.85;;;;;;;16.97;79.07;100802.00;4994589;28;20022;-82
2022/05/25 02:37:34;;;;;;;5.72;3.90;;;;;;;16.99;79.27;100812.72;4992980;28;20042;-82
2022/05/25 02:40:04;;;;;;;5.05;3.85;;;;;;;16.98;79.20;100809.16;4995907;28;20022;-81
2022/05/25 02:42:29;;;;;;;9.50;4.47;;;;;;;16.99;79.48;100808.16;4976763;28;20027;-82
2022/05/25 02:44:55;;;;;;;5.60;4.00;;;;;;;16.96;79.48;100803.03;4977579;28;20037;-81
2022/05/25 02:47:21;;;;;;;9.23;3.53;;;;;;;17.03;79.22;100817.66;4976660;28;20022;-82
2022/05/25 02:49:46;;;;;;;8.23;4.35;;;;;;;17.04;79.20;100815.81;4994737;28;20030;-83
2022/05/25 02:52:13;;;;;;;5.47;3.95;;;;;;;17.04;79.05;100811.22;4994598;28;20019;-82
2022/05/25 02:54:38;;;;;;;22.75;4.88;;;;;;;17.07;79.03;100810.91;4993383;28;20443;-82
2022/05/25 02:57:08;;;;;;;7.03;4.63;;;;;;;17.07;79.09;100805.47;4995817;28;20486;-82
2022/05/25 02:59:34;;;;;;;9.80;4.45;;;;;;;17.07;78.94;100816.34;4978087;28;20026;-82
2022/05/25 03:02:02;;;;;;;10.93;4.50;;;;;;;17.01;78.87;100816.13;4994699;28;20029;-83
2022/05/25 03:04:28;;;;;;;13.70;4.68;;;;;;;16.98;78.82;100825.47;4978213;28;20027;-82
2022/05/25 03:06:53;;;;;;;11.73;5.00;;;;;;;16.96;79.03;100824.78;4993989;28;20109;-82
2022/05/25 03:09:19;;;;;;;9.43;4.05;;;;;;;17.02;79.05;100834.13;4977420;28;20040;-82
2022/05/25 03:11:46;;;;;;;8.52;3.58;;;;;;;17.01;78.98;100833.28;4976665;28;20061;-83
2022/05/25 03:14:12;;;;;;;22.05;4.45;;;;;;;17.05;78.99;100834.69;4976337;28;20484;-81
2022/05/25 03:16:37;;;;;;;20.13;5.05;;;;;;;17.01;79.13;100836.00;4993299;28;20026;-83
2022/05/25 03:19:03;;;;;;;13.32;4.20;;;;;;;17.05;79.43;100842.81;4957018;28;20034;-82
2022/05/25 03:21:28;;;;;;;11.15;4.50;;;;;;;17.07;79.44;100851.66;4974794;28;20113;-81
2022/05/25 03:23:55;;;;;;;18.27;5.05;;;;;;;17.10;79.29;100845.91;4976666;28;20042;-82
2022/05/25 03:26:20;;;;;;;15.85;5.55;;;;;;;17.09;79.29;100857.81;4993005;28;20023;-83
2022/05/25 03:28:47;;;;;;;20.42;5.90;;;;;;;17.13;79.23;100859.16;4993589;28;20023;-80
2022/05/25 03:31:12;;;;;;;28.27;9.88;;;;;;;17.10;79.23;100859.50;4975486;28;20040;-82
2022/05/25 03:33:38;;;;;;;26.80;7.63;;;;;;;17.11;79.61;100858.50;4993620;28;20025;-82
2022/05/25 03:36:06;;;;;;;42.65;6.68;;;;;;;17.13;79.81;100859.16;4975929;28;20113;-81
2022/05/25 03:38:31;;;;;;;20.00;5.35;;;;;;;17.19;79.76;100863.97;4993264;28;20042;-81
2022/05/25 03:41:00;;;;;;;26.75;6.10;;;;;;;17.24;80.07;100858.06;4966133;28;20500;-81
2022/05/25 03:43:34;;;;;;;20.33;6.47;;;;;;;17.27;80.16;100869.47;4997408;28;20030;-82
2022/05/25 03:45:59;;;;;;;27.02;7.10;;;;;;;17.28;79.79;100863.00;4997172;28;20061;-81
2022/05/25 03:48:25;;;;;;;19.65;7.28;;;;;;;17.30;79.84;100860.97;4979418;28;20376;-83
2022/05/25 03:50:50;;;;;;;24.48;6.85;;;;;;;17.36;79.62;100859.47;4979901;28;20027;-81
2022/05/25 03:53:16;;;;;;;43.88;8.35;;;;;;;17.33;79.62;100848.94;4997044;28;20495;-82
2022/05/25 03:55:42;;;;;;;35.50;8.15;;;;;;;17.39;79.63;100870.03;4979761;28;20589;-82
2022/05/25 03:58:09;;;;;;;46.28;8.43;;;;;;;17.35;79.84;100864.06;4976211;28;20030;-82
2022/05/25 04:00:35;;;;;;;35.13;8.20;;;;;;;17.48;79.62;100868.19;4990113;28;20022;-82
2022/05/25 04:03:02;;;;;;;37.13;8.52;;;;;;;17.50;79.66;100866.16;4968882;28;20023;-83
2022/05/25 04:05:29;;;;;;;46.03;7.68;;;;;;;17.58;79.93;100868.94;4984774;28;20377;-82
2022/05/25 04:07:56;;;;;;;18.67;5.80;;;;;;;17.61;80.16;100868.63;4980281;28;20120;-82
2022/05/25 04:10:22;;;;;;;23.33;6.50;;;;;;;17.67;80.42;100867.97;4997339;28;20022;-82
2022/05/25 04:12:48;;;;;;;24.08;5.63;;;;;;;17.76;80.78;100869.69;4979605;28;20458;-83
2022/05/25 04:15:18;;;;;;;27.98;6.93;;;;;;;17.84;80.83;100881.44;4997756;28;20026;-82
2022/05/25 04:17:43;;;;;;;19.58;6.78;;;;;;;17.89;81.09;100878.22;4998532;28;20026;-82
2022/05/25 04:20:10;;;;;;;12.98;5.35;;;;;;;17.95;80.89;100880.28;4998156;28;20054;-81
2022/05/25 04:22:36;;;;;;;26.95;7.53;;;;;;;17.97;80.77;100875.53;4989269;28;20475;-82
2022/05/25 04:25:08;;;;;;;30.88;6.72;;;;;;;17.97;81.30;100866.53;4995927;28;20049;-81
2022/05/25 04:27:35;;;;;;;20.33;6.30;;;;;;;18.05;81.22;100883.72;4970792;28;20405;-83
2022/05/25 04:30:00;;;;;;;26.33;5.60;;;;;;;18.07;81.28;100880.84;4988010;28;20030;-82
2022/05/25 04:32:26;;;;;;;21.17;6.20;;;;;;;17.98;81.47;100876.41;4995771;28;20024;-80
2022/05/25 04:34:51;;;;;;;18.35;6.93;;;;;;;18.05;81.40;100863.81;4995937;28;20065;-81
2022/05/25 04:40:02;;;;;;;10.73;4.75;;;;;;;18.12;81.42;100873.88;4997009;28;20144;-82
2022/05/25 04:42:29;;;;;;;15.27;5.00;;;;;;;18.27;81.27;100874.06;4994434;28;20133;-79
2022/05/25 04:45:00;;;;;;;13.00;4.47;;;;;;;18.30;81.24;100877.28;4978697;28;20038;-77
2022/05/25 04:47:30;;;;;;;55.45;5.88;;;;;;;18.36;81.41;100887.50;4994968;28;20468;-79
2022/05/25 04:49:57;;;;;;;23.25;6.30;;;;;;;18.41;81.22;100890.56;4975874;28;20045;-77
2022/05/25 04:52:23;;;;;;;27.58;6.47;;;;;;;18.39;80.74;100887.19;4993024;28;20054;-78
2022/05/25 04:54:48;;;;;;;14.05;4.03;;;;;;;18.40;80.63;100888.03;4995511;28;20404;-79
2022/05/25 04:57:20;;;;;;;18.05;5.22;;;;;;;18.53;80.11;100893.00;4977558;28;20038;-79
2022/05/25 04:59:50;;;;;;;26.70;6.93;;;;;;;18.44;80.53;100898.41;4995342;28;20026;-83
2022/05/25 05:02:16;;;;;;;27.13;4.47;;;;;;;18.53;80.21;100903.91;4995874;28;20116;-84
2022/05/25 05:04:42;;;;;;;23.73;5.18;;;;;;;18.39;80.59;100899.94;4979345;28;20523;-82
2022/05/25 05:07:09;;;;;;;18.52;5.35;;;;;;;18.44;80.46;100906.56;4997076;28;20645;-85
2022/05/25 05:09:36;;;;;;;27.80;4.18;;;;;;;18.51;80.20;100916.84;4979098;28;20030;-84
2022/05/25 05:12:02;;;;;;;21.75;6.30;;;;;;;18.48;79.78;100907.09;4996040;28;20030;-83
2022/05/25 05:14:28;;;;;;;22.27;4.53;;;;;;;18.55;79.79;100905.44;4996877;28;20018;-84
2022/05/25 05:16:58;;;;;;;15.15;3.40;;;;;;;18.47;79.46;100905.38;4996372;28;20394;-85
2022/05/25 05:19:27;;;;;;;16.75;4.45;;;;;;;18.55;79.01;100913.63;4979209;28;20030;-84
2022/05/25 05:21:54;;;;;;;9.55;3.83;;;;;;;18.55;78.89;100921.78;4979073;28;20030;-83
2022/05/25 05:24:21;;;;;;;17.50;5.40;;;;;;;18.57;78.76;100927.06;4979135;28;20019;-85
2022/05/25 05:26:47;;;;;;;19.98;5.22;;;;;;;18.64;78.56;100934.38;4963304;28;20093;-82
2022/05/25 05:29:12;;;;;;;22.27;5.20;;;;;;;18.72;77.80;100938.97;4979584;28;20026;-82
2022/05/25 05:31:38;;;;;;;46.28;10.57;;;;;;;18.71;77.19;100929.13;4962044;28;20053;-80
2022/05/25 05:34:04;;;;;;;24.48;5.40;;;;;;;18.74;77.56;100937.81;4994430;28;20054;-81
2022/05/25 05:36:43;;;;;;;17.35;5.35;;;;;;;18.76;77.61;100943.06;4992544;28;20057;-81
2022/05/25 05:39:10;;;;;;;31.92;5.80;;;;;;;18.58;77.90;100939.66;4982951;28;20062;-81
2022/05/25 05:41:44;;;;;;;12.85;5.30;;;;;;;18.60;78.97;100937.59;4993510;28;20567;-80
2022/05/25 05:44:17;;;;;;;12.85;3.95;;;;;;;18.60;78.69;100932.16;4993936;28;20085;-80
2022/05/25 05:46:42;;;;;;;;;;;;;;;18.61;78.82;100947.50;4990946;28;20022;-80
2022/05/25 05:49:11;;;;;;;13.52;4.30;;;;;;;18.65;79.26;100944.28;4990669;28;20358;-82
2022/05/25 05:51:37;;;;;;;8.95;4.68;;;;;;;18.84;79.04;100945.78;4975924;28;20027;-84
2022/05/25 05:54:03;;;;;;;8.35;4.60;;;;;;;18.87;79.01;100940.00;4982717;28;20026;-80
2022/05/25 05:56:29;;;;;;;9.73;4.60;;;;;;;19.03;78.67;100945.44;4992923;28;20034;-82
2022/05/25 05:58:55;;;;;;;15.07;4.80;;;;;;;18.96;78.05;100938.97;4994382;28;20034;-79
2022/05/25 06:01:21;;;;;;;14.07;4.53;;;;;;;19.01;76.59;100952.97;4993346;28;20022;-82
2022/05/25 06:03:46;;;;;;;11.50;3.40;;;;;;;19.12;75.97;100952.59;4966723;28;20100;-83
2022/05/25 06:06:12;;;;;;;14.50;4.20;;;;;;;19.17;75.14;100947.50;4967959;28;20113;-82
2022/05/25 06:08:38;;;;;;;10.23;4.13;;;;;;;19.11;74.90;100948.16;4975273;28;20643;-83
2022/05/25 06:11:05;;;;;;;6.10;3.33;;;;;;;19.17;75.04;100941.19;4963493;28;20046;-85
2022/05/25 06:13:30;;;;;;;7.88;3.33;;;;;;;19.31;74.73;100959.56;4977361;28;20034;-80
2022/05/25 06:21:27;;;;;;;4.80;2.85;;;;;;;19.19;72.83;100948.16;4996370;28;20510;-83
2022/05/25 06:23:53;;;;;;;9.07;4.18;;;;;;;19.22;72.92;100956.00;4994733;28;20030;-80
2022/05/25 06:26:19;;;;;;;14.70;3.58;;;;;;;19.18;73.10;100968.28;4995274;28;20034;-81
2022/05/25 06:28:44;;;;;;;10.95;3.40;;;;;;;19.04;71.66;100963.53;4961928;28;20030;-81
2022/05/25 06:31:12;;;;;;;6.65;3.63;;;;;;;19.14;71.97;100979.72;4994527;28;20026;-81
2022/05/25 06:33:38;;;;;;;17.08;3.70;;;;;;;18.99;74.02;100966.75;4995026;28;20030;-86
2022/05/25 06:36:32;;;;;;;10.52;4.75;;;;;;;19.15;74.38;100982.25;4978064;28;20092;-84
2022/05/25 06:38:58;;;;;;;5.88;3.17;;;;;;;19.07;73.46;100984.13;4958587;28;20073;-87
2022/05/25 06:41:24;;;;;;;10.35;4.18;;;;;;;18.94;75.71;100980.06;4963536;28;20031;-85
2022/05/25 06:43:51;;;;;;;18.75;5.50;;;;;;;19.04;76.52;100979.88;4995085;28;20030;-88
2022/05/25 06:46:19;;;;;;;9.65;5.00;;;;;;;19.10;77.14;100968.28;4977873;28;20104;-87
2022/05/25 06:48:46;;;;;;;12.35;3.88;;;;;;;19.19;75.74;100989.06;4979082;28;20085;-88
2022/05/25 06:51:13;;;;;;;10.43;4.68;;;;;;;19.33;75.54;100993.81;4978145;28;20029;-85
2022/05/25 06:53:39;;;;;;;11.63;5.15;;;;;;;19.35;75.51;100994.53;4980843;28;20448;-82
2022/05/25 06:56:05;;;;;;;13.20;5.13;;;;;;;19.39;76.32;100993.16;4973620;28;20180;-86
2022/05/25 06:58:31;;;;;;;12.35;5.07;;;;;;;19.42;74.80;100992.81;4972125;28;20082;-83
2022/05/25 07:00:56;;;;;;;22.10;5.18;;;;;;;19.49;75.52;100988.38;4973688;28;20018;-83
2022/05/25 07:03:22;;;;;;;8.90;4.72;;;;;;;19.53;75.84;100995.22;4976783;28;20029;-83
2022/05/25 07:05:47;;;;;;;12.00;4.07;;;;;;;19.55;75.07;100992.28;5002077;28;20063;-84
2022/05/25 07:08:15;;;;;;;12.57;4.55;;;;;;;19.66;75.40;100999.28;4996040;28;20026;-76
2022/05/25 07:10:46;;;;;;;21.42;4.82;;;;;;;19.75;75.78;101000.94;4975443;28;20038;-77
2022/05/25 07:13:12;;;;;;;9.65;4.75;;;;;;;19.76;74.69;101010.81;4962053;28;20022;-77
2022/05/25 07:15:38;;;;;;;15.18;4.57;;;;;;;19.71;75.10;101016.81;4979365;28;20030;-76
2022/05/25 07:18:04;;;;;;;15.10;4.18;;;;;;;19.83;74.86;101004.50;4997414;28;20030;-77
2022/05/25 07:20:29;;;;;;;9.02;4.50;;;;;;;19.82;75.13;100991.00;4974154;28;20035;-78
2022/05/25 07:22:55;;;;;;;28.88;6.45;;;;;;;19.88;75.42;100988.44;4987513;28;20050;-75
2022/05/25 07:25:21;;;;;;;13.85;4.95;;;;;;;19.92;75.65;101000.72;4985504;28;20018;-83
2022/05/25 07:27:46;;;;;;;11.52;4.90;;;;;;;20.00;75.10;101005.28;4992909;28;20063;-81
2022/05/25 07:30:13;;;;;;;7.68;4.30;;;;;;;20.05;74.17;101013.81;4971862;28;20022;-79
2022/05/25 07:32:40;;;;;;;8.77;4.35;;;;;;;20.08;73.69;101008.84;4976154;28;20052;-83
2022/05/25 07:35:14;;;;;;;19.58;4.05;;;;;;;20.18;74.09;101014.09;4977045;28;20022;-83
2022/05/25 07:37:45;;;;;;;8.07;3.38;;;;;;;20.25;73.58;101009.63;4992965;28;20122;-79
2022/05/25 07:40:18;;;;;;;11.65;4.78;;;;;;;20.21;73.19;101010.16;4993737;28;20076;-81
2022/05/25 07:42:48;;;;;;;16.73;4.25;;;;;;;20.17;73.16;101009.66;4992877;28;20171;-83
2022/05/25 07:45:14;;;;;;;5.82;3.72;;;;;;;20.24;73.29;101018.88;4975685;28;20029;-82
2022/05/25 07:47:40;;;;;;;19.60;4.45;;;;;;;20.14;73.13;101018.22;4977803;28;20026;-83
2022/05/25 07:50:05;;;;;;;15.60;4.18;;;;;;;20.03;72.96;101019.44;4973344;28;20038;-79
2022/05/25 07:52:37;;;;;;;13.20;4.45;;;;;;;20.21;72.80;101030.13;4992169;28;20042;-81
2022/05/25 07:55:05;;;;;;;12.63;3.92;;;;;;;20.20;72.60;101020.25;4991941;28;20030;-81
2022/05/25 07:57:30;;;;;;;21.38;5.32;;;;;;;20.33;72.97;101022.44;4991288;28;20028;-78
2022/05/25 07:59:56;;;;;;;7.47;3.63;;;;;;;20.40;73.03;101032.44;4976196;28;20038;-79
2022/05/25 08:08:02;;;;;;;11.27;3.13;;;;;;;20.22;72.29;101031.81;4986455;28;20034;-78
2022/05/25 08:10:28;;;;;;;8.60;3.00;;;;;;;20.12;70.14;101033.09;4970766;28;20026;-79
2022/05/25 08:12:57;;;;;;;13.40;4.20;;;;;;;19.99;72.08;101033.63;4974318;28;20034;-82
2022/05/25 08:15:27;;;;;;;3.33;3.03;;;;;;;19.96;72.93;101042.19;4992227;28;20488;-83
2022/05/25 08:17:54;;;;;;;4.60;2.72;;;;;;;19.87;69.70;101055.00;4991977;28;20032;-81
2022/05/25 08:20:22;;;;;;;13.77;3.30;;;;;;;20.03;70.94;101052.22;4981683;28;20647;-83
2022/05/25 08:22:49;;;;;;;8.50;3.70;;;;;;;20.07;70.74;101060.91;4993865;28;20066;-80
2022/05/25 08:25:18;;;;;;;11.07;4.28;;;;;;;20.13;70.94;101060.19;4996304;28;20036;-79
2022/05/25 08:27:45;;;;;;;4.57;2.95;;;;;;;20.24;71.64;101070.75;4982225;28;20041;-80
2022/05/25 08:30:17;;;;;;;12.95;4.68;;;;;;;20.09;72.74;101058.84;4994736;28;20113;-83
2022/05/25 08:32:44;;;;;;;25.23;4.35;;;;;;;20.00;73.15;101068.09;4994272;28;20036;-82
2022/05/25 08:35:10;;;;;;;15.07;3.88;;;;;;;20.07;74.37;101071.81;4978228;28;20093;-85
2022/05/25 08:37:36;;;;;;;12.27;3.60;;;;;;;19.95;74.62;101057.69;4869936;28;2630139;-82
2022/05/25 08:40:03;;;;;;;12.27;3.95;;;;;;;20.16;74.21;101069.91;4979930;28;20389;-80
2022/05/25 08:42:32;;;;;;;21.67;3.80;;;;;;;20.31;72.73;101079.97;4981326;28;20032;-80
2022/05/25 08:44:58;;;;;;;7.22;2.80;;;;;;;20.36;72.89;101088.50;4982135;28;20034;-79
2022/05/25 08:47:24;;;;;;;7.80;3.63;;;;;;;20.35;72.44;101081.31;4997442;28;20026;-82
2022/05/25 08:49:51;;;;;;;7.25;3.78;;;;;;;20.14;73.43;101083.75;4997245;28;20061;-82
2022/05/25 08:52:23;;;;;;;15.23;4.72;;;;;;;20.07;74.44;101093.66;4982729;28;20095;-83
2022/05/25 08:54:49;;;;;;;10.18;6.22;;;;;;;20.11;74.13;101089.56;4989071;28;20127;-81
2022/05/25 08:57:23;;;;;;;25.17;4.30;;;;;;;20.23;73.52;101088.16;4995415;28;20455;-87
2022/05/25 08:59:48;;;;;;;13.55;4.13;;;;;;;20.46;73.63;101094.59;4960525;28;20065;-81
2022/05/25 09:02:40;;;;;;;11.65;3.90;;;;;;;20.43;73.00;101084.00;4992801;28;20488;-82
2022/05/25 09:05:20;;;;;;;13.18;3.85;;;;;;;20.36;72.00;101077.56;4996310;28;20038;-85
2022/05/25 09:08:16;;;;;;;7.70;3.50;;;;;;;20.46;72.82;101075.47;4994791;28;20026;-77
2022/05/25 09:10:48;;;;;;;10.50;3.70;;;;;;;20.70;71.99;101081.84;4987793;28;20038;-79
2022/05/25 09:13:49;;;;;;;10.57;2.72;;;;;;;20.76;70.49;101086.59;4996159;28;20361;-79
2022/05/25 09:16:18;;;;;;;12.15;3.72;;;;;;;20.90;70.31;101074.88;4995324;28;20393;-79
2022/05/25 09:18:51;;;;;;;19.20;3.50;;;;;;;20.80;69.89;101080.56;4977454;28;20092;-79
2022/05/25 09:21:21;;;;;;;7.78;3.65;;;;;;;20.93;69.75;101088.19;4993860;28;20031;-78
2022/05/25 09:23:51;;;;;;;8.68;3.40;;;;;;;20.80;69.87;101079.72;4975814;28;20365;-78
2022/05/25 09:26:21;;;;;;;6.63;3.67;;;;;;;20.87;70.71;101073.38;4975602;28;20050;-77
2022/05/25 09:28:53;;;;;;;13.05;2.95;;;;;;;20.84;69.38;101081.06;4959950;28;20088;-77
2022/05/25 09:31:23;;;;;;;;;;;;;;;20.59;70.75;101091.28;4993602;28;20120;-78
2022/05/25 09:34:03;;;;;;;22.15;4.78;;;;;;;20.54;71.94;101080.91;4993141;28;19964;-77
2022/05/25 09:36:44;;;;;;;12.27;3.80;;;;;;;20.70;71.80;101088.19;4961530;28;20547;-78
2022/05/25 09:39:13;;;;;;;3.55;2.83;;;;;;;20.89;70.88;101081.38;4976263;28;20061;-79
2022/05/25 09:41:45;;;;;;;16.13;3.78;;;;;;;20.88;70.38;101082.44;4994186;28;20045;-77
2022/05/25 09:44:14;;;;;;;;;;;;;;;20.91;70.67;101076.59;4995188;28;20488;-80
2022/05/25 09:46:59;;;;;;;7.38;3.05;;;;;;;20.95;70.80;101061.50;4995126;28;19910;-79
2022/05/25 09:49:36;;;;;;;10.38;3.45;;;;;;;21.05;69.93;101062.13;4984975;28;20026;-83
2022/05/25 09:52:10;;;;;;;8.70;3.17;;;;;;;21.10;68.98;101076.13;4979143;28;20029;-77
2022/05/25 09:54:43;;;;;;;11.63;4.72;;;;;;;21.20;68.99;101075.91;4994047;28;20031;-78
2022/05/25 09:57:30;;;;;;;3.70;2.20;;;;;;;21.05;67.86;101079.41;4995440;28;20064;-79
2022/05/25 10:00:21;;;;;;;7.80;2.80;;;;;;;21.03;69.60;101086.09;4994019;28;20026;-79
2022/05/25 10:02:46;;;;;;;4.53;2.78;;;;;;;21.15;69.93;101073.72;4993944;28;20045;-78
2022/05/25 10:05:23;;;;;;;10.30;2.88;;;;;;;21.00;68.88;101062.69;4976093;28;20026;-78
2022/05/25 10:08:20;;;;;;;11.35;4.05;;;;;;;21.14;69.57;101072.88;4977276;28;20033;-79
2022/05/25 10:10:52;;;;;;;9.88;3.40;;;;;;;21.21;68.76;101066.66;4985921;28;20109;-78
2022/05/25 10:13:22;;;;;;;;;;;;;;;21.27;69.31;101072.25;4977448;28;20022;-78
2022/05/25 10:15:52;;;;;;;15.48;5.55;;;;;;;21.29;68.11;101069.31;4993641;28;19972;-79
2022/05/25 10:18:34;;;;;;;7.93;3.90;;;;;;;21.28;69.15;101063.03;4998157;28;20026;-78
2022/05/25 10:21:01;;;;;;;;;;;;;;;21.27;69.15;101074.13;4987457;28;20041;-79
2022/05/25 10:23:30;;;;;;;8.45;2.75;;;;;;;21.29;68.29;101041.97;4978679;28;19913;-79
2022/05/25 10:26:07;;;;;;;7.70;2.95;;;;;;;21.36;68.12;101049.25;4976440;28;20050;-78
2022/05/25 10:28:36;;;;;;;8.50;2.75;;;;;;;21.40;67.11;101045.13;4985007;28;20488;-80
2022/05/25 10:37:06;;;;;;;9.95;2.50;;;;;;;21.50;67.60;101067.59;4986726;28;20428;-75
2022/05/25 10:39:41;;;;;;;6.97;2.47;;;;;;;21.29;68.26;101055.63;4963725;28;20026;-80
2022/05/25 10:42:26;;;;;;;10.65;3.33;;;;;;;21.21;67.85;101056.56;4993500;28;20483;-78
2022/05/25 10:45:14;;;;;;;7.45;2.30;;;;;;;21.25;68.64;101068.00;4969659;28;20031;-77
2022/05/25 10:47:49;;;;;;;14.95;3.33;;;;;;;21.30;69.12;101060.94;4986530;28;20078;-77
2022/05/25 10:50:26;;;;;;;9.95;3.30;;;;;;;21.31;70.08;101067.28;4980305;28;20057;-77
2022/05/25 10:53:17;;;;;;;11.68;3.03;;;;;;;21.23;69.13;101068.19;4998568;28;20025;-80
2022/05/25 10:55:51;;;;;;;12.07;3.20;;;;;;;21.24;69.57;101045.25;4969317;28;20034;-83
2022/05/25 10:58:29;;;;;;;15.77;2.63;;;;;;;21.12;69.67;101053.06;4996742;28;20064;-84
2022/05/25 11:01:05;;;;;;;16.58;3.05;;;;;;;20.98;70.29;101052.94;4997108;28;20033;-84
2022/05/25 11:03:59;;;;;;;9.32;2.58;;;;;;;21.20;69.13;101063.06;4997282;28;20117;-84
2022/05/25 11:06:58;;;;;;;6.97;2.45;;;;;;;21.34;68.97;101056.81;4996792;28;20064;-86
2022/05/25 11:09:23;;;;;;;10.70;2.65;;;;;;;21.23;68.37;101065.44;4965801;28;20029;-85
2022/05/25 11:12:05;;;;;;;6.78;2.13;;;;;;;21.27;68.40;101055.84;4958235;28;20034;-84
2022/05/25 11:14:52;;;;;;;15.70;3.03;;;;;;;21.55;68.00;101058.84;4961726;28;20117;-85
2022/05/25 11:17:42;;;;;;;24.90;13.90;;;;;;;21.61;67.73;101053.47;4974448;28;20129;-85
2022/05/25 11:20:27;;;;;;;10.82;2.20;;;;;;;21.60;67.97;101068.19;4969898;28;20030;-84
2022/05/25 11:23:17;;;;;;;4.07;1.63;;;;;;;21.70;67.78;101063.31;4985236;28;20487;-84
2022/05/25 11:25:51;;;;;;;13.27;4.45;;;;;;;21.89;67.29;101069.31;4978500;28;20091;-85
2022/05/25 11:28:16;;;;;;;2.72;2.10;;;;;;;21.71;67.18;101070.47;4977508;28;20027;-83
2022/05/25 11:31:08;;;;;;;5.78;2.20;;;;;;;21.56;67.95;101044.97;4965670;28;20028;-85
2022/05/25 11:33:36;;;;;;;8.40;2.67;;;;;;;21.77;67.59;101068.91;4998080;28;20542;-85
2022/05/25 11:36:12;;;;;;;7.05;2.40;;;;;;;21.80;67.58;101078.63;4996568;28;20030;-84
2022/05/25 11:39:03;;;;;;;10.48;2.03;;;;;;;21.62;67.77;101066.13;4978072;28;20058;-85
2022/05/25 11:41:35;;;;;;;6.47;2.10;;;;;;;21.71;67.58;101070.47;4977498;28;20042;-84
2022/05/25 11:44:37;;;;;;;5.70;2.67;;;;;;;21.82;67.57;101071.06;4976746;28;20023;-85
2022/05/25 11:47:51;;;;;;;5.57;2.22;;;;;;;21.77;65.95;101057.09;4976866;28;20093;-85
2022/05/25 11:50:16;;;;;;;9.38;2.53;;;;;;;21.87;66.11;101074.09;4991176;28;20042;-84
2022/05/25 11:53:02;;;;;;;4.90;2.30;;;;;;;21.92;66.15;101063.47;4969855;28;20505;-84
2022/05/25 11:55:41;;;;;;;9.15;2.28;;;;;;;21.83;65.56;101045.38;4977323;28;20041;-84
2022/05/25 11:58:23;;;;;;;6.53;2.88;;;;;;;21.65;66.87;101049.31;4958111;28;20031;-85
2022/05/25 12:01:03;;;;;;;8.95;2.33;;;;;;;21.80;67.19;101049.34;4958741;28;20209;-86
2022/05/25 12:03:43;;;;;;;9.10;2.35;;;;;;;21.60;66.52;101040.81;4982970;28;20023;-85
2022/05/25 12:06:27;;;;;;;8.20;2.58;;;;;;;21.78;66.15;101056.03;4982371;28;20026;-84
2022/05/25 12:08:53;;;;;;;10.82;2.70;;;;;;;21.75;65.85;101060.00;4978477;28;20033;-86